イルクーツク の空港の天気 - METARとTAF

イルクーツク国際空港 ( UIII / IKT ) - ロシア イルクーツク
飛行場実況気象(Metar)
観測時間03/29 05:00 +08 (03/28 21:00 UTC)
風向・風速東 2m/s
視程10km以上
天気現象
なし
気温-4℃
湿度86%
気圧1025hPa
METARUIII 282100Z 08002MPS CAVOK M04/M06 Q1025 R12/60D NOSIG RMK QFE726/0969
過去の天気等 Google飛行場航空写真 Wunderground天気予報

過去48時間のMETAR

飛行場予報(TAF)
発表時間: 3/29 04:00 +08 (3/28 20:00 UTC)
予報対象時間: 29日5時 +08 ~ 30日5時 +08
風向・風速南南東 3m/s
視程10km以上
なし
TAF UIII 282000Z 2821/2921 16003MPS CAVOK